sensor_id;sensor_type;location;lat;lon;timestamp;P1;durP1;ratioP1;P2;durP2;ratioP2
43118;SDS011;28729;49.838;8.650;2022-08-19T00:02:57;23.27;;;16.42;;
43118;SDS011;28729;49.838;8.650;2022-08-19T00:06:59;25.70;;;15.55;;
43118;SDS011;28729;49.838;8.650;2022-08-19T00:11:01;26.38;;;16.55;;
43118;SDS011;28729;49.838;8.650;2022-08-19T00:15:04;23.40;;;16.13;;
43118;SDS011;28729;49.838;8.650;2022-08-19T00:19:12;21.70;;;15.23;;
43118;SDS011;28729;49.838;8.650;2022-08-19T00:23:14;19.90;;;15.07;;
43118;SDS011;28729;49.838;8.650;2022-08-19T00:27:17;21.35;;;16.02;;
43118;SDS011;28729;49.838;8.650;2022-08-19T00:31:27;21.23;;;15.35;;
43118;SDS011;28729;49.838;8.650;2022-08-19T00:35:29;21.40;;;15.98;;
43118;SDS011;28729;49.838;8.650;2022-08-19T00:39:31;23.25;;;15.25;;
43118;SDS011;28729;49.838;8.650;2022-08-19T00:43:33;20.27;;;15.65;;
43118;SDS011;28729;49.838;8.650;2022-08-19T00:47:38;23.73;;;17.17;;
43118;SDS011;28729;49.838;8.650;2022-08-19T00:52:09;21.80;;;15.90;;
43118;SDS011;28729;49.838;8.650;2022-08-19T00:56:16;24.85;;;17.05;;
43118;SDS011;28729;49.838;8.650;2022-08-19T01:00:18;23.10;;;16.25;;
43118;SDS011;28729;49.838;8.650;2022-08-19T01:08:56;27.60;;;18.30;;
43118;SDS011;28729;49.838;8.650;2022-08-19T01:12:59;24.05;;;16.30;;
43118;SDS011;28729;49.838;8.650;2022-08-19T01:17:19;21.77;;;15.90;;
43118;SDS011;28729;49.838;8.650;2022-08-19T01:21:42;25.02;;;16.45;;
43118;SDS011;28729;49.838;8.650;2022-08-19T01:25:54;22.67;;;15.80;;
43118;SDS011;28729;49.838;8.650;2022-08-19T01:30:03;23.05;;;16.20;;
43118;SDS011;28729;49.838;8.650;2022-08-19T01:34:37;22.73;;;15.00;;
43118;SDS011;28729;49.838;8.650;2022-08-19T01:38:41;20.52;;;14.75;;
43118;SDS011;28729;49.838;8.650;2022-08-19T01:42:44;20.70;;;15.57;;
43118;SDS011;28729;49.838;8.650;2022-08-19T01:46:47;21.27;;;14.77;;
43118;SDS011;28729;49.838;8.650;2022-08-19T01:50:49;23.35;;;14.88;;
43118;SDS011;28729;49.838;8.650;2022-08-19T01:54:51;20.47;;;15.23;;
43118;SDS011;28729;49.838;8.650;2022-08-19T01:58:58;20.67;;;13.80;;
43118;SDS011;28729;49.838;8.650;2022-08-19T02:03:03;22.60;;;16.02;;
43118;SDS011;28729;49.838;8.650;2022-08-19T02:07:05;22.35;;;16.15;;
43118;SDS011;28729;49.838;8.650;2022-08-19T02:11:09;22.25;;;15.07;;
43118;SDS011;28729;49.838;8.650;2022-08-19T02:15:27;21.08;;;15.18;;
43118;SDS011;28729;49.838;8.650;2022-08-19T02:19:29;23.88;;;16.45;;
43118;SDS011;28729;49.838;8.650;2022-08-19T02:23:33;23.92;;;15.68;;
43118;SDS011;28729;49.838;8.650;2022-08-19T02:27:36;21.50;;;16.33;;
43118;SDS011;28729;49.838;8.650;2022-08-19T02:31:52;23.98;;;16.45;;
43118;SDS011;28729;49.838;8.650;2022-08-19T02:35:54;21.98;;;16.83;;
43118;SDS011;28729;49.838;8.650;2022-08-19T02:40:02;22.50;;;16.30;;
43118;SDS011;28729;49.838;8.650;2022-08-19T02:44:12;22.00;;;15.45;;
43118;SDS011;28729;49.838;8.650;2022-08-19T02:48:31;24.40;;;16.15;;
43118;SDS011;28729;49.838;8.650;2022-08-19T02:52:56;24.02;;;16.98;;
43118;SDS011;28729;49.838;8.650;2022-08-19T03:01:01;27.37;;;17.00;;
43118;SDS011;28729;49.838;8.650;2022-08-19T03:05:04;23.27;;;16.67;;
43118;SDS011;28729;49.838;8.650;2022-08-19T03:09:10;24.02;;;17.25;;
43118;SDS011;28729;49.838;8.650;2022-08-19T03:13:16;31.47;;;17.23;;
43118;SDS011;28729;49.838;8.650;2022-08-19T03:17:19;23.42;;;16.00;;
43118;SDS011;28729;49.838;8.650;2022-08-19T03:21:22;25.60;;;16.85;;
43118;SDS011;28729;49.838;8.650;2022-08-19T03:25:26;23.75;;;16.83;;
43118;SDS011;28729;49.838;8.650;2022-08-19T03:29:28;26.52;;;16.92;;
43118;SDS011;28729;49.838;8.650;2022-08-19T03:33:33;25.00;;;17.33;;
43118;SDS011;28729;49.838;8.650;2022-08-19T03:37:36;23.98;;;17.80;;
43118;SDS011;28729;49.838;8.650;2022-08-19T03:41:42;24.38;;;17.35;;
43118;SDS011;28729;49.838;8.650;2022-08-19T03:45:48;24.90;;;17.08;;
43118;SDS011;28729;49.838;8.650;2022-08-19T03:49:51;23.27;;;16.55;;
43118;SDS011;28729;49.838;8.650;2022-08-19T03:53:53;22.88;;;16.17;;
43118;SDS011;28729;49.838;8.650;2022-08-19T03:57:56;24.33;;;16.60;;
43118;SDS011;28729;49.838;8.650;2022-08-19T04:02:05;24.05;;;16.88;;
43118;SDS011;28729;49.838;8.650;2022-08-19T04:06:11;23.42;;;16.95;;
43118;SDS011;28729;49.838;8.650;2022-08-19T04:10:17;25.42;;;17.20;;
43118;SDS011;28729;49.838;8.650;2022-08-19T04:14:20;23.77;;;16.65;;
43118;SDS011;28729;49.838;8.650;2022-08-19T04:18:23;25.63;;;17.10;;
43118;SDS011;28729;49.838;8.650;2022-08-19T04:22:25;25.02;;;17.55;;
43118;SDS011;28729;49.838;8.650;2022-08-19T04:26:30;24.15;;;16.92;;
43118;SDS011;28729;49.838;8.650;2022-08-19T04:30:41;25.08;;;16.80;;
43118;SDS011;28729;49.838;8.650;2022-08-19T04:34:48;26.45;;;16.85;;
43118;SDS011;28729;49.838;8.650;2022-08-19T04:39:14;23.80;;;16.90;;
43118;SDS011;28729;49.838;8.650;2022-08-19T04:43:17;23.48;;;16.65;;
43118;SDS011;28729;49.838;8.650;2022-08-19T04:47:19;27.77;;;18.38;;
43118;SDS011;28729;49.838;8.650;2022-08-19T04:51:41;28.17;;;17.60;;
43118;SDS011;28729;49.838;8.650;2022-08-19T04:55:45;26.17;;;17.70;;
43118;SDS011;28729;49.838;8.650;2022-08-19T04:59:47;26.83;;;17.02;;
43118;SDS011;28729;49.838;8.650;2022-08-19T05:03:49;25.20;;;17.83;;
43118;SDS011;28729;49.838;8.650;2022-08-19T05:07:51;28.58;;;18.15;;
43118;SDS011;28729;49.838;8.650;2022-08-19T05:11:53;25.95;;;17.80;;
43118;SDS011;28729;49.838;8.650;2022-08-19T05:15:56;26.13;;;17.83;;
43118;SDS011;28729;49.838;8.650;2022-08-19T05:19:59;25.58;;;18.15;;
43118;SDS011;28729;49.838;8.650;2022-08-19T05:24:21;23.35;;;16.90;;
43118;SDS011;28729;49.838;8.650;2022-08-19T05:28:23;23.92;;;17.98;;
43118;SDS011;28729;49.838;8.650;2022-08-19T05:32:25;26.45;;;17.20;;
43118;SDS011;28729;49.838;8.650;2022-08-19T05:36:28;25.95;;;18.30;;
43118;SDS011;28729;49.838;8.650;2022-08-19T05:40:34;26.63;;;18.25;;
43118;SDS011;28729;49.838;8.650;2022-08-19T05:44:40;28.05;;;18.83;;
43118;SDS011;28729;49.838;8.650;2022-08-19T05:48:45;26.15;;;17.67;;
43118;SDS011;28729;49.838;8.650;2022-08-19T05:52:47;25.48;;;16.77;;
43118;SDS011;28729;49.838;8.650;2022-08-19T05:56:51;26.08;;;17.80;;
43118;SDS011;28729;49.838;8.650;2022-08-19T06:00:54;28.42;;;18.25;;
43118;SDS011;28729;49.838;8.650;2022-08-19T06:04:56;23.92;;;17.95;;
43118;SDS011;28729;49.838;8.650;2022-08-19T06:08:57;27.35;;;18.05;;
43118;SDS011;28729;49.838;8.650;2022-08-19T06:13:00;27.48;;;18.60;;
43118;SDS011;28729;49.838;8.650;2022-08-19T06:17:02;28.38;;;17.95;;
43118;SDS011;28729;49.838;8.650;2022-08-19T06:21:07;26.25;;;18.40;;
43118;SDS011;28729;49.838;8.650;2022-08-19T06:25:09;26.45;;;16.80;;
43118;SDS011;28729;49.838;8.650;2022-08-19T06:29:16;22.48;;;15.90;;
43118;SDS011;28729;49.838;8.650;2022-08-19T06:33:28;22.75;;;15.48;;
43118;SDS011;28729;49.838;8.650;2022-08-19T06:37:36;21.88;;;15.18;;
43118;SDS011;28729;49.838;8.650;2022-08-19T06:41:47;20.02;;;13.75;;
43118;SDS011;28729;49.838;8.650;2022-08-19T06:45:54;20.02;;;14.73;;
43118;SDS011;28729;49.838;8.650;2022-08-19T06:50:02;21.70;;;13.37;;
43118;SDS011;28729;49.838;8.650;2022-08-19T06:54:25;18.95;;;13.35;;
43118;SDS011;28729;49.838;8.650;2022-08-19T06:58:47;17.80;;;13.68;;
43118;SDS011;28729;49.838;8.650;2022-08-19T07:02:59;16.88;;;12.93;;
43118;SDS011;28729;49.838;8.650;2022-08-19T07:07:10;21.15;;;11.55;;
43118;SDS011;28729;49.838;8.650;2022-08-19T07:11:21;16.15;;;10.68;;
43118;SDS011;28729;49.838;8.650;2022-08-19T07:19:26;15.63;;;10.43;;
43118;SDS011;28729;49.838;8.650;2022-08-19T07:23:31;15.77;;;11.07;;
43118;SDS011;28729;49.838;8.650;2022-08-19T07:27:33;15.52;;;10.98;;
43118;SDS011;28729;49.838;8.650;2022-08-19T07:31:35;16.33;;;10.60;;
43118;SDS011;28729;49.838;8.650;2022-08-19T07:35:38;12.18;;;9.30;;
43118;SDS011;28729;49.838;8.650;2022-08-19T07:39:40;13.05;;;9.50;;
43118;SDS011;28729;49.838;8.650;2022-08-19T07:43:42;15.27;;;10.57;;
43118;SDS011;28729;49.838;8.650;2022-08-19T07:47:44;14.80;;;9.20;;
43118;SDS011;28729;49.838;8.650;2022-08-19T07:52:04;15.02;;;9.98;;
43118;SDS011;28729;49.838;8.650;2022-08-19T07:56:09;14.10;;;9.57;;
43118;SDS011;28729;49.838;8.650;2022-08-19T08:00:11;15.55;;;9.43;;
43118;SDS011;28729;49.838;8.650;2022-08-19T08:04:34;16.38;;;9.23;;
43118;SDS011;28729;49.838;8.650;2022-08-19T08:09:03;13.30;;;8.18;;
43118;SDS011;28729;49.838;8.650;2022-08-19T08:13:12;11.45;;;8.18;;
43118;SDS011;28729;49.838;8.650;2022-08-19T08:21:37;9.48;;;7.43;;
43118;SDS011;28729;49.838;8.650;2022-08-19T08:25:48;11.77;;;7.05;;
43118;SDS011;28729;49.838;8.650;2022-08-19T08:29:50;8.57;;;6.97;;
43118;SDS011;28729;49.838;8.650;2022-08-19T08:33:52;11.63;;;7.53;;
43118;SDS011;28729;49.838;8.650;2022-08-19T08:37:58;11.13;;;8.48;;
43118;SDS011;28729;49.838;8.650;2022-08-19T08:42:20;11.05;;;7.35;;
43118;SDS011;28729;49.838;8.650;2022-08-19T08:46:51;9.30;;;5.90;;
43118;SDS011;28729;49.838;8.650;2022-08-19T08:51:03;6.43;;;5.05;;
43118;SDS011;28729;49.838;8.650;2022-08-19T08:55:12;10.80;;;6.85;;
43118;SDS011;28729;49.838;8.650;2022-08-19T08:59:19;8.00;;;5.57;;
43118;SDS011;28729;49.838;8.650;2022-08-19T09:03:25;8.48;;;5.80;;
43118;SDS011;28729;49.838;8.650;2022-08-19T09:16:29;8.32;;;5.70;;
43118;SDS011;28729;49.838;8.650;2022-08-19T09:20:31;9.63;;;5.65;;
43118;SDS011;28729;49.838;8.650;2022-08-19T09:24:33;8.82;;;5.38;;
43118;SDS011;28729;49.838;8.650;2022-08-19T09:28:37;7.38;;;5.13;;
43118;SDS011;28729;49.838;8.650;2022-08-19T09:32:39;8.82;;;4.95;;
43118;SDS011;28729;49.838;8.650;2022-08-19T09:36:43;6.78;;;5.35;;
43118;SDS011;28729;49.838;8.650;2022-08-19T09:40:45;7.80;;;6.30;;
43118;SDS011;28729;49.838;8.650;2022-08-19T09:44:46;9.95;;;6.63;;
43118;SDS011;28729;49.838;8.650;2022-08-19T09:48:53;8.07;;;5.72;;
43118;SDS011;28729;49.838;8.650;2022-08-19T09:52:56;7.35;;;5.82;;
43118;SDS011;28729;49.838;8.650;2022-08-19T09:56:58;10.45;;;6.00;;
43118;SDS011;28729;49.838;8.650;2022-08-19T10:01:08;10.20;;;6.82;;
43118;SDS011;28729;49.838;8.650;2022-08-19T10:05:10;10.98;;;6.55;;
43118;SDS011;28729;49.838;8.650;2022-08-19T10:09:31;9.45;;;7.07;;
43118;SDS011;28729;49.838;8.650;2022-08-19T10:13:37;9.45;;;7.20;;
43118;SDS011;28729;49.838;8.650;2022-08-19T10:17:42;10.68;;;7.93;;
43118;SDS011;28729;49.838;8.650;2022-08-19T10:21:55;16.58;;;9.18;;
43118;SDS011;28729;49.838;8.650;2022-08-19T10:26:00;8.32;;;7.35;;
43118;SDS011;28729;49.838;8.650;2022-08-19T10:30:02;9.77;;;7.25;;
43118;SDS011;28729;49.838;8.650;2022-08-19T10:34:10;9.82;;;7.25;;
43118;SDS011;28729;49.838;8.650;2022-08-19T10:38:27;15.98;;;8.35;;
43118;SDS011;28729;49.838;8.650;2022-08-19T10:42:33;8.10;;;6.82;;
43118;SDS011;28729;49.838;8.650;2022-08-19T10:46:37;8.98;;;7.55;;
43118;SDS011;28729;49.838;8.650;2022-08-19T10:50:48;8.23;;;6.93;;
43118;SDS011;28729;49.838;8.650;2022-08-19T10:55:23;9.13;;;7.07;;
43118;SDS011;28729;49.838;8.650;2022-08-19T10:59:44;8.30;;;6.70;;
43118;SDS011;28729;49.838;8.650;2022-08-19T11:03:45;9.20;;;7.50;;
43118;SDS011;28729;49.838;8.650;2022-08-19T11:07:47;8.60;;;7.65;;
43118;SDS011;28729;49.838;8.650;2022-08-19T11:11:53;8.35;;;6.90;;
43118;SDS011;28729;49.838;8.650;2022-08-19T11:15:56;9.02;;;7.47;;
43118;SDS011;28729;49.838;8.650;2022-08-19T11:20:05;11.38;;;9.05;;
43118;SDS011;28729;49.838;8.650;2022-08-19T11:24:09;8.85;;;7.93;;
43118;SDS011;28729;49.838;8.650;2022-08-19T11:28:13;7.97;;;7.18;;
43118;SDS011;28729;49.838;8.650;2022-08-19T11:32:14;10.30;;;7.65;;
43118;SDS011;28729;49.838;8.650;2022-08-19T11:36:17;11.10;;;7.10;;
43118;SDS011;28729;49.838;8.650;2022-08-19T11:40:20;11.57;;;8.15;;
43118;SDS011;28729;49.838;8.650;2022-08-19T11:44:22;9.52;;;8.52;;
43118;SDS011;28729;49.838;8.650;2022-08-19T11:48:24;9.60;;;8.63;;
43118;SDS011;28729;49.838;8.650;2022-08-19T11:52:27;11.18;;;9.93;;
43118;SDS011;28729;49.838;8.650;2022-08-19T11:56:28;8.85;;;7.70;;
43118;SDS011;28729;49.838;8.650;2022-08-19T12:00:30;9.05;;;8.00;;
43118;SDS011;28729;49.838;8.650;2022-08-19T12:04:31;8.98;;;8.07;;
43118;SDS011;28729;49.838;8.650;2022-08-19T12:08:33;10.48;;;8.50;;
43118;SDS011;28729;49.838;8.650;2022-08-19T12:12:36;10.55;;;9.45;;
43118;SDS011;28729;49.838;8.650;2022-08-19T12:16:43;12.38;;;10.18;;
43118;SDS011;28729;49.838;8.650;2022-08-19T12:20:53;11.57;;;10.47;;
43118;SDS011;28729;49.838;8.650;2022-08-19T12:24:58;13.07;;;11.77;;
43118;SDS011;28729;49.838;8.650;2022-08-19T12:28:59;13.98;;;11.38;;
43118;SDS011;28729;49.838;8.650;2022-08-19T12:33:01;11.93;;;10.73;;
43118;SDS011;28729;49.838;8.650;2022-08-19T12:41:06;11.57;;;9.85;;
43118;SDS011;28729;49.838;8.650;2022-08-19T12:45:11;11.75;;;10.13;;
43118;SDS011;28729;49.838;8.650;2022-08-19T12:49:14;10.25;;;9.18;;
43118;SDS011;28729;49.838;8.650;2022-08-19T12:53:36;9.63;;;8.73;;
43118;SDS011;28729;49.838;8.650;2022-08-19T12:57:39;8.25;;;7.45;;
43118;SDS011;28729;49.838;8.650;2022-08-19T13:01:42;8.55;;;7.75;;
43118;SDS011;28729;49.838;8.650;2022-08-19T13:05:44;7.25;;;6.55;;
43118;SDS011;28729;49.838;8.650;2022-08-19T13:13:48;7.00;;;6.35;;
43118;SDS011;28729;49.838;8.650;2022-08-19T13:17:52;7.40;;;6.65;;
43118;SDS011;28729;49.838;8.650;2022-08-19T13:21:55;8.35;;;6.93;;
43118;SDS011;28729;49.838;8.650;2022-08-19T13:26:01;7.72;;;6.75;;
43118;SDS011;28729;49.838;8.650;2022-08-19T13:30:07;8.00;;;6.13;;
43118;SDS011;28729;49.838;8.650;2022-08-19T13:34:33;6.32;;;5.72;;
43118;SDS011;28729;49.838;8.650;2022-08-19T13:38:36;6.15;;;5.57;;
43118;SDS011;28729;49.838;8.650;2022-08-19T13:42:39;6.80;;;5.95;;
43118;SDS011;28729;49.838;8.650;2022-08-19T13:46:41;8.57;;;6.10;;
43118;SDS011;28729;49.838;8.650;2022-08-19T13:50:46;9.85;;;6.88;;
43118;SDS011;28729;49.838;8.650;2022-08-19T13:54:50;7.18;;;5.85;;
43118;SDS011;28729;49.838;8.650;2022-08-19T13:58:52;6.00;;;5.25;;
43118;SDS011;28729;49.838;8.650;2022-08-19T14:02:59;6.03;;;5.00;;
43118;SDS011;28729;49.838;8.650;2022-08-19T14:07:01;5.93;;;5.25;;
43118;SDS011;28729;49.838;8.650;2022-08-19T14:11:02;5.38;;;4.88;;
43118;SDS011;28729;49.838;8.650;2022-08-19T14:15:08;5.47;;;4.80;;
43118;SDS011;28729;49.838;8.650;2022-08-19T14:19:11;7.25;;;4.93;;
43118;SDS011;28729;49.838;8.650;2022-08-19T14:23:12;5.15;;;4.65;;
43118;SDS011;28729;49.838;8.650;2022-08-19T14:27:14;5.13;;;4.63;;
43118;SDS011;28729;49.838;8.650;2022-08-19T14:31:16;5.35;;;4.57;;
43118;SDS011;28729;49.838;8.650;2022-08-19T14:35:20;5.13;;;4.50;;
43118;SDS011;28729;49.838;8.650;2022-08-19T14:39:23;6.28;;;4.85;;
43118;SDS011;28729;49.838;8.650;2022-08-19T14:43:24;6.32;;;4.53;;
43118;SDS011;28729;49.838;8.650;2022-08-19T14:47:26;5.00;;;4.32;;
43118;SDS011;28729;49.838;8.650;2022-08-19T14:51:28;6.88;;;4.40;;
43118;SDS011;28729;49.838;8.650;2022-08-19T14:55:30;9.45;;;5.05;;
43118;SDS011;28729;49.838;8.650;2022-08-19T14:59:34;6.10;;;5.50;;
43118;SDS011;28729;49.838;8.650;2022-08-19T15:03:36;6.93;;;5.53;;
43118;SDS011;28729;49.838;8.650;2022-08-19T15:07:38;7.50;;;5.72;;
43118;SDS011;28729;49.838;8.650;2022-08-19T15:11:42;6.38;;;5.40;;
43118;SDS011;28729;49.838;8.650;2022-08-19T15:15:43;7.55;;;5.75;;
43118;SDS011;28729;49.838;8.650;2022-08-19T15:19:46;7.20;;;5.65;;
43118;SDS011;28729;49.838;8.650;2022-08-19T15:23:49;7.05;;;6.15;;
43118;SDS011;28729;49.838;8.650;2022-08-19T15:27:51;6.97;;;5.68;;
43118;SDS011;28729;49.838;8.650;2022-08-19T15:31:54;6.85;;;6.15;;
43118;SDS011;28729;49.838;8.650;2022-08-19T15:35:59;9.65;;;6.35;;
43118;SDS011;28729;49.838;8.650;2022-08-19T15:40:00;7.75;;;6.00;;
43118;SDS011;28729;49.838;8.650;2022-08-19T15:48:09;5.60;;;5.10;;
43118;SDS011;28729;49.838;8.650;2022-08-19T15:52:10;6.88;;;5.32;;
43118;SDS011;28729;49.838;8.650;2022-08-19T15:56:12;6.18;;;5.13;;
43118;SDS011;28729;49.838;8.650;2022-08-19T16:00:15;7.05;;;5.50;;
43118;SDS011;28729;49.838;8.650;2022-08-19T16:04:36;7.53;;;5.00;;
43118;SDS011;28729;49.838;8.650;2022-08-19T16:08:59;6.03;;;5.40;;
43118;SDS011;28729;49.838;8.650;2022-08-19T16:13:03;5.50;;;4.85;;
43118;SDS011;28729;49.838;8.650;2022-08-19T16:17:06;6.75;;;5.07;;
43118;SDS011;28729;49.838;8.650;2022-08-19T16:21:12;7.32;;;5.00;;
43118;SDS011;28729;49.838;8.650;2022-08-19T16:25:17;6.80;;;4.95;;
43118;SDS011;28729;49.838;8.650;2022-08-19T16:29:19;6.32;;;4.55;;
43118;SDS011;28729;49.838;8.650;2022-08-19T16:33:39;5.93;;;5.00;;
43118;SDS011;28729;49.838;8.650;2022-08-19T16:37:41;6.72;;;5.03;;
43118;SDS011;28729;49.838;8.650;2022-08-19T16:41:43;7.38;;;4.85;;
43118;SDS011;28729;49.838;8.650;2022-08-19T16:45:49;9.70;;;4.80;;
43118;SDS011;28729;49.838;8.650;2022-08-19T16:49:55;7.25;;;6.00;;
43118;SDS011;28729;49.838;8.650;2022-08-19T16:53:56;9.18;;;5.80;;
43118;SDS011;28729;49.838;8.650;2022-08-19T16:57:58;7.70;;;5.55;;
43118;SDS011;28729;49.838;8.650;2022-08-19T17:02:04;8.10;;;5.57;;
43118;SDS011;28729;49.838;8.650;2022-08-19T17:06:09;7.32;;;6.10;;
43118;SDS011;28729;49.838;8.650;2022-08-19T17:10:20;7.18;;;5.75;;
43118;SDS011;28729;49.838;8.650;2022-08-19T17:14:22;8.55;;;6.00;;
43118;SDS011;28729;49.838;8.650;2022-08-19T17:18:24;7.20;;;6.25;;
43118;SDS011;28729;49.838;8.650;2022-08-19T17:22:31;8.25;;;6.00;;
43118;SDS011;28729;49.838;8.650;2022-08-19T17:26:36;7.40;;;6.53;;
43118;SDS011;28729;49.838;8.650;2022-08-19T17:30:37;7.97;;;6.07;;
43118;SDS011;28729;49.838;8.650;2022-08-19T17:34:39;9.93;;;6.35;;
43118;SDS011;28729;49.838;8.650;2022-08-19T17:38:41;7.05;;;6.25;;
43118;SDS011;28729;49.838;8.650;2022-08-19T17:42:43;8.57;;;6.53;;
43118;SDS011;28729;49.838;8.650;2022-08-19T17:46:45;11.07;;;6.63;;
43118;SDS011;28729;49.838;8.650;2022-08-19T17:50:47;9.27;;;7.22;;
43118;SDS011;28729;49.838;8.650;2022-08-19T17:54:48;9.67;;;6.70;;
43118;SDS011;28729;49.838;8.650;2022-08-19T17:58:51;8.15;;;6.53;;
43118;SDS011;28729;49.838;8.650;2022-08-19T18:03:02;7.43;;;6.30;;
43118;SDS011;28729;49.838;8.650;2022-08-19T18:07:07;7.32;;;6.05;;
43118;SDS011;28729;49.838;8.650;2022-08-19T18:11:09;7.65;;;6.32;;
43118;SDS011;28729;49.838;8.650;2022-08-19T18:15:11;7.88;;;6.75;;
43118;SDS011;28729;49.838;8.650;2022-08-19T18:19:14;7.97;;;6.18;;
43118;SDS011;28729;49.838;8.650;2022-08-19T18:23:15;6.47;;;5.77;;
43118;SDS011;28729;49.838;8.650;2022-08-19T18:27:37;7.83;;;5.97;;
43118;SDS011;28729;49.838;8.650;2022-08-19T18:31:39;10.65;;;6.32;;
43118;SDS011;28729;49.838;8.650;2022-08-19T18:35:44;11.43;;;5.13;;
43118;SDS011;28729;49.838;8.650;2022-08-19T18:39:48;6.68;;;5.20;;
43118;SDS011;28729;49.838;8.650;2022-08-19T18:44:09;8.60;;;5.32;;
43118;SDS011;28729;49.838;8.650;2022-08-19T18:48:29;6.15;;;5.00;;
43118;SDS011;28729;49.838;8.650;2022-08-19T18:52:49;6.45;;;4.43;;
43118;SDS011;28729;49.838;8.650;2022-08-19T18:56:51;6.03;;;4.83;;
43118;SDS011;28729;49.838;8.650;2022-08-19T19:00:56;6.40;;;5.03;;
43118;SDS011;28729;49.838;8.650;2022-08-19T19:04:58;8.77;;;5.30;;
43118;SDS011;28729;49.838;8.650;2022-08-19T19:09:11;6.93;;;5.15;;
43118;SDS011;28729;49.838;8.650;2022-08-19T19:13:15;6.30;;;5.25;;
43118;SDS011;28729;49.838;8.650;2022-08-19T19:17:17;6.93;;;5.33;;
43118;SDS011;28729;49.838;8.650;2022-08-19T19:21:23;8.68;;;5.50;;
43118;SDS011;28729;49.838;8.650;2022-08-19T19:25:26;10.15;;;5.25;;
43118;SDS011;28729;49.838;8.650;2022-08-19T19:29:48;7.85;;;5.78;;
43118;SDS011;28729;49.838;8.650;2022-08-19T19:33:53;8.93;;;5.78;;
43118;SDS011;28729;49.838;8.650;2022-08-19T19:37:56;12.23;;;8.00;;
43118;SDS011;28729;49.838;8.650;2022-08-19T19:41:58;10.88;;;7.55;;
43118;SDS011;28729;49.838;8.650;2022-08-19T19:46:00;10.75;;;6.85;;
43118;SDS011;28729;49.838;8.650;2022-08-19T19:50:02;9.75;;;7.03;;
43118;SDS011;28729;49.838;8.650;2022-08-19T19:54:15;9.20;;;7.20;;
43118;SDS011;28729;49.838;8.650;2022-08-19T19:58:27;10.25;;;7.28;;
43118;SDS011;28729;49.838;8.650;2022-08-19T20:02:30;10.50;;;6.28;;
43118;SDS011;28729;49.838;8.650;2022-08-19T20:06:32;9.70;;;6.53;;
43118;SDS011;28729;49.838;8.650;2022-08-19T20:10:36;8.57;;;6.60;;
43118;SDS011;28729;49.838;8.650;2022-08-19T20:14:41;9.07;;;7.10;;
43118;SDS011;28729;49.838;8.650;2022-08-19T20:18:42;11.43;;;6.63;;
43118;SDS011;28729;49.838;8.650;2022-08-19T20:22:44;11.07;;;6.93;;
43118;SDS011;28729;49.838;8.650;2022-08-19T20:26:47;13.10;;;8.75;;
43118;SDS011;28729;49.838;8.650;2022-08-19T20:30:54;10.82;;;7.22;;
43118;SDS011;28729;49.838;8.650;2022-08-19T20:34:59;10.57;;;6.97;;
43118;SDS011;28729;49.838;8.650;2022-08-19T20:39:02;10.57;;;7.28;;
43118;SDS011;28729;49.838;8.650;2022-08-19T20:43:07;8.38;;;6.25;;
43118;SDS011;28729;49.838;8.650;2022-08-19T20:47:13;8.77;;;6.82;;
43118;SDS011;28729;49.838;8.650;2022-08-19T20:51:15;8.53;;;6.43;;
43118;SDS011;28729;49.838;8.650;2022-08-19T20:55:17;9.50;;;7.07;;
43118;SDS011;28729;49.838;8.650;2022-08-19T20:59:20;9.75;;;6.72;;
43118;SDS011;28729;49.838;8.650;2022-08-19T21:07:25;8.73;;;6.30;;
43118;SDS011;28729;49.838;8.650;2022-08-19T21:11:39;16.30;;;8.00;;
43118;SDS011;28729;49.838;8.650;2022-08-19T21:15:42;12.57;;;7.00;;
43118;SDS011;28729;49.838;8.650;2022-08-19T21:19:44;10.02;;;7.53;;
43118;SDS011;28729;49.838;8.650;2022-08-19T21:23:47;10.93;;;7.00;;
43118;SDS011;28729;49.838;8.650;2022-08-19T21:27:49;9.95;;;7.15;;
43118;SDS011;28729;49.838;8.650;2022-08-19T21:31:58;12.98;;;7.30;;
43118;SDS011;28729;49.838;8.650;2022-08-19T21:36:02;12.63;;;6.85;;
43118;SDS011;28729;49.838;8.650;2022-08-19T21:40:05;11.27;;;7.20;;
43118;SDS011;28729;49.838;8.650;2022-08-19T21:44:08;9.40;;;6.68;;
43118;SDS011;28729;49.838;8.650;2022-08-19T21:48:10;13.00;;;7.33;;
43118;SDS011;28729;49.838;8.650;2022-08-19T21:52:21;12.18;;;7.32;;
43118;SDS011;28729;49.838;8.650;2022-08-19T21:56:25;9.85;;;6.93;;
43118;SDS011;28729;49.838;8.650;2022-08-19T22:00:28;13.57;;;8.18;;
43118;SDS011;28729;49.838;8.650;2022-08-19T22:04:32;11.85;;;8.00;;
43118;SDS011;28729;49.838;8.650;2022-08-19T22:08:35;11.10;;;7.00;;
43118;SDS011;28729;49.838;8.650;2022-08-19T22:12:38;11.15;;;7.05;;
43118;SDS011;28729;49.838;8.650;2022-08-19T22:16:53;10.75;;;7.13;;
43118;SDS011;28729;49.838;8.650;2022-08-19T22:21:00;11.70;;;7.20;;
43118;SDS011;28729;49.838;8.650;2022-08-19T22:25:05;11.90;;;6.78;;
43118;SDS011;28729;49.838;8.650;2022-08-19T22:29:10;9.32;;;6.82;;
43118;SDS011;28729;49.838;8.650;2022-08-19T22:33:17;13.30;;;7.60;;
43118;SDS011;28729;49.838;8.650;2022-08-19T22:37:21;10.50;;;6.82;;
43118;SDS011;28729;49.838;8.650;2022-08-19T22:41:23;11.48;;;7.57;;
43118;SDS011;28729;49.838;8.650;2022-08-19T22:45:25;12.52;;;7.15;;
43118;SDS011;28729;49.838;8.650;2022-08-19T22:49:28;10.77;;;7.05;;
43118;SDS011;28729;49.838;8.650;2022-08-19T22:53:37;9.68;;;6.55;;
43118;SDS011;28729;49.838;8.650;2022-08-19T22:57:44;12.93;;;7.30;;
43118;SDS011;28729;49.838;8.650;2022-08-19T23:01:46;9.45;;;6.47;;
43118;SDS011;28729;49.838;8.650;2022-08-19T23:05:55;8.40;;;6.35;;
43118;SDS011;28729;49.838;8.650;2022-08-19T23:10:02;9.23;;;5.97;;
43118;SDS011;28729;49.838;8.650;2022-08-19T23:14:09;11.23;;;6.50;;
43118;SDS011;28729;49.838;8.650;2022-08-19T23:18:13;12.85;;;6.40;;
43118;SDS011;28729;49.838;8.650;2022-08-19T23:22:17;13.23;;;7.18;;
43118;SDS011;28729;49.838;8.650;2022-08-19T23:30:44;9.15;;;6.20;;
43118;SDS011;28729;49.838;8.650;2022-08-19T23:35:09;7.60;;;5.43;;
43118;SDS011;28729;49.838;8.650;2022-08-19T23:39:14;10.57;;;6.57;;
43118;SDS011;28729;49.838;8.650;2022-08-19T23:43:28;10.52;;;5.65;;
43118;SDS011;28729;49.838;8.650;2022-08-19T23:47:39;8.45;;;5.68;;
43118;SDS011;28729;49.838;8.650;2022-08-19T23:52:03;8.15;;;5.82;;
43118;SDS011;28729;49.838;8.650;2022-08-19T23:56:22;8.73;;;5.57;;
